sensor_id;sensor_type;location;lat;lon;timestamp;temperature;humidity
15099;DHT22;33900;53.640;9.942;2023-06-14T00:00:16;19.40;73.40
15099;DHT22;33900;53.640;9.942;2023-06-14T00:02:42;19.40;73.60
15099;DHT22;33900;53.640;9.942;2023-06-14T00:05:08;19.40;74.00
15099;DHT22;33900;53.640;9.942;2023-06-14T00:07:40;19.50;74.10
15099;DHT22;33900;53.640;9.942;2023-06-14T00:10:10;19.50;74.50
15099;DHT22;33900;53.640;9.942;2023-06-14T00:12:38;19.40;74.80
15099;DHT22;33900;53.640;9.942;2023-06-14T00:15:07;19.50;75.00
15099;DHT22;33900;53.640;9.942;2023-06-14T00:17:35;19.50;74.80
15099;DHT22;33900;53.640;9.942;2023-06-14T00:20:02;19.50;74.80
15099;DHT22;33900;53.640;9.942;2023-06-14T00:22:30;19.50;74.80
15099;DHT22;33900;53.640;9.942;2023-06-14T00:24:57;19.50;74.90
15099;DHT22;33900;53.640;9.942;2023-06-14T00:27:23;19.60;75.10
15099;DHT22;33900;53.640;9.942;2023-06-14T00:29:51;19.60;75.10
15099;DHT22;33900;53.640;9.942;2023-06-14T00:32:18;19.60;75.40
15099;DHT22;33900;53.640;9.942;2023-06-14T00:34:44;19.60;75.50
15099;DHT22;33900;53.640;9.942;2023-06-14T00:37:10;19.60;75.60
15099;DHT22;33900;53.640;9.942;2023-06-14T00:39:35;19.70;75.80
15099;DHT22;33900;53.640;9.942;2023-06-14T00:42:01;19.60;75.70
15099;DHT22;33900;53.640;9.942;2023-06-14T00:44:27;19.70;75.60
15099;DHT22;33900;53.640;9.942;2023-06-14T00:46:53;19.70;75.50
15099;DHT22;33900;53.640;9.942;2023-06-14T00:49:22;19.60;75.10
15099;DHT22;33900;53.640;9.942;2023-06-14T00:51:48;19.70;75.30
15099;DHT22;33900;53.640;9.942;2023-06-14T00:54:14;19.70;75.40
15099;DHT22;33900;53.640;9.942;2023-06-14T00:56:39;19.70;75.60
15099;DHT22;33900;53.640;9.942;2023-06-14T00:59:08;19.70;75.70
15099;DHT22;33900;53.640;9.942;2023-06-14T01:01:36;19.70;76.50
15099;DHT22;33900;53.640;9.942;2023-06-14T01:04:12;19.70;75.60
15099;DHT22;33900;53.640;9.942;2023-06-14T01:06:44;19.70;75.60
15099;DHT22;33900;53.640;9.942;2023-06-14T01:09:27;19.60;75.50
15099;DHT22;33900;53.640;9.942;2023-06-14T01:12:07;19.60;75.50
15099;DHT22;33900;53.640;9.942;2023-06-14T01:14:38;19.60;75.50
15099;DHT22;33900;53.640;9.942;2023-06-14T01:17:04;19.60;75.50
15099;DHT22;33900;53.640;9.942;2023-06-14T01:19:30;19.50;75.50
15099;DHT22;33900;53.640;9.942;2023-06-14T01:22:02;19.50;75.60
15099;DHT22;33900;53.640;9.942;2023-06-14T01:24:28;19.40;75.80
15099;DHT22;33900;53.640;9.942;2023-06-14T01:26:57;19.40;75.80
15099;DHT22;33900;53.640;9.942;2023-06-14T01:29:27;19.40;76.00
15099;DHT22;33900;53.640;9.942;2023-06-14T01:31:53;19.30;76.00
15099;DHT22;33900;53.640;9.942;2023-06-14T01:34:19;19.30;76.00
15099;DHT22;33900;53.640;9.942;2023-06-14T01:36:45;19.20;76.10
15099;DHT22;33900;53.640;9.942;2023-06-14T01:39:12;19.20;76.20
15099;DHT22;33900;53.640;9.942;2023-06-14T01:41:39;19.10;76.20
15099;DHT22;33900;53.640;9.942;2023-06-14T01:44:06;19.00;76.30
15099;DHT22;33900;53.640;9.942;2023-06-14T01:46:32;19.00;76.50
15099;DHT22;33900;53.640;9.942;2023-06-14T01:48:58;18.90;76.50
15099;DHT22;33900;53.640;9.942;2023-06-14T01:51:26;18.90;76.70
15099;DHT22;33900;53.640;9.942;2023-06-14T01:53:51;18.90;76.70
15099;DHT22;33900;53.640;9.942;2023-06-14T01:56:18;18.80;76.80
15099;DHT22;33900;53.640;9.942;2023-06-14T01:58:43;18.80;76.90
15099;DHT22;33900;53.640;9.942;2023-06-14T02:01:09;18.80;77.10
15099;DHT22;33900;53.640;9.942;2023-06-14T02:03:36;18.80;77.20
15099;DHT22;33900;53.640;9.942;2023-06-14T02:06:06;18.70;77.20
15099;DHT22;33900;53.640;9.942;2023-06-14T02:08:32;18.70;77.40
15099;DHT22;33900;53.640;9.942;2023-06-14T02:10:59;18.60;77.50
15099;DHT22;33900;53.640;9.942;2023-06-14T02:13:25;18.60;77.60
15099;DHT22;33900;53.640;9.942;2023-06-14T02:15:51;18.60;77.80
15099;DHT22;33900;53.640;9.942;2023-06-14T02:18:20;18.50;78.00
15099;DHT22;33900;53.640;9.942;2023-06-14T02:20:47;18.40;78.00
15099;DHT22;33900;53.640;9.942;2023-06-14T02:23:15;18.40;78.00
15099;DHT22;33900;53.640;9.942;2023-06-14T02:25:41;18.40;78.20
15099;DHT22;33900;53.640;9.942;2023-06-14T02:28:08;18.40;78.40
15099;DHT22;33900;53.640;9.942;2023-06-14T02:30:34;18.30;78.50
15099;DHT22;33900;53.640;9.942;2023-06-14T02:33:00;18.30;78.60
15099;DHT22;33900;53.640;9.942;2023-06-14T02:35:26;18.30;78.70
15099;DHT22;33900;53.640;9.942;2023-06-14T02:37:52;18.20;78.90
15099;DHT22;33900;53.640;9.942;2023-06-14T02:40:22;18.20;78.90
15099;DHT22;33900;53.640;9.942;2023-06-14T02:42:47;18.20;79.00
15099;DHT22;33900;53.640;9.942;2023-06-14T02:45:13;18.20;79.10
15099;DHT22;33900;53.640;9.942;2023-06-14T02:47:39;18.20;79.30
15099;DHT22;33900;53.640;9.942;2023-06-14T02:50:05;18.10;79.30
15099;DHT22;33900;53.640;9.942;2023-06-14T02:52:38;18.10;79.40
15099;DHT22;33900;53.640;9.942;2023-06-14T02:55:04;18.10;79.40
15099;DHT22;33900;53.640;9.942;2023-06-14T02:57:31;18.10;79.50
15099;DHT22;33900;53.640;9.942;2023-06-14T02:59:57;18.00;79.60
15099;DHT22;33900;53.640;9.942;2023-06-14T03:02:23;18.10;79.80
15099;DHT22;33900;53.640;9.942;2023-06-14T03:04:52;18.10;79.90
15099;DHT22;33900;53.640;9.942;2023-06-14T03:07:19;18.00;79.90
15099;DHT22;33900;53.640;9.942;2023-06-14T03:09:48;18.00;80.10
15099;DHT22;33900;53.640;9.942;2023-06-14T03:12:15;18.00;80.20
15099;DHT22;33900;53.640;9.942;2023-06-14T03:14:41;18.00;80.30
15099;DHT22;33900;53.640;9.942;2023-06-14T03:17:09;18.00;80.30
15099;DHT22;33900;53.640;9.942;2023-06-14T03:19:38;17.90;80.30
15099;DHT22;33900;53.640;9.942;2023-06-14T03:22:07;17.90;80.40
15099;DHT22;33900;53.640;9.942;2023-06-14T03:24:34;17.90;80.50
15099;DHT22;33900;53.640;9.942;2023-06-14T03:27:07;17.90;80.50
15099;DHT22;33900;53.640;9.942;2023-06-14T03:29:37;17.80;80.50
15099;DHT22;33900;53.640;9.942;2023-06-14T03:32:03;17.80;80.50
15099;DHT22;33900;53.640;9.942;2023-06-14T03:34:40;17.80;80.60
15099;DHT22;33900;53.640;9.942;2023-06-14T03:37:11;17.80;80.70
15099;DHT22;33900;53.640;9.942;2023-06-14T03:39:37;17.80;80.80
15099;DHT22;33900;53.640;9.942;2023-06-14T03:42:03;17.80;80.90
15099;DHT22;33900;53.640;9.942;2023-06-14T03:44:31;17.90;80.80
15099;DHT22;33900;53.640;9.942;2023-06-14T03:46:56;17.80;80.80
15099;DHT22;33900;53.640;9.942;2023-06-14T03:49:23;17.80;81.00
15099;DHT22;33900;53.640;9.942;2023-06-14T03:51:49;17.80;81.10
15099;DHT22;33900;53.640;9.942;2023-06-14T03:54:19;17.80;81.10
15099;DHT22;33900;53.640;9.942;2023-06-14T03:56:50;17.80;81.10
15099;DHT22;33900;53.640;9.942;2023-06-14T03:59:16;17.80;81.10
15099;DHT22;33900;53.640;9.942;2023-06-14T04:01:42;17.90;81.20
15099;DHT22;33900;53.640;9.942;2023-06-14T04:04:10;17.90;81.10
15099;DHT22;33900;53.640;9.942;2023-06-14T04:06:36;17.90;81.10
15099;DHT22;33900;53.640;9.942;2023-06-14T04:09:04;17.90;81.10
15099;DHT22;33900;53.640;9.942;2023-06-14T04:11:30;17.90;81.10
15099;DHT22;33900;53.640;9.942;2023-06-14T04:13:57;18.00;81.10
15099;DHT22;33900;53.640;9.942;2023-06-14T04:16:26;18.00;81.10
15099;DHT22;33900;53.640;9.942;2023-06-14T04:18:52;18.00;81.00
15099;DHT22;33900;53.640;9.942;2023-06-14T04:21:19;18.00;81.10
15099;DHT22;33900;53.640;9.942;2023-06-14T04:23:45;18.00;80.90
15099;DHT22;33900;53.640;9.942;2023-06-14T04:26:14;18.00;80.80
15099;DHT22;33900;53.640;9.942;2023-06-14T04:28:43;18.00;80.80
15099;DHT22;33900;53.640;9.942;2023-06-14T04:31:10;18.00;80.80
15099;DHT22;33900;53.640;9.942;2023-06-14T04:33:37;18.10;80.90
15099;DHT22;33900;53.640;9.942;2023-06-14T04:36:15;18.10;80.80
15099;DHT22;33900;53.640;9.942;2023-06-14T04:38:46;18.10;80.90
15099;DHT22;33900;53.640;9.942;2023-06-14T04:41:15;18.10;80.90
15099;DHT22;33900;53.640;9.942;2023-06-14T04:47:00;18.20;80.80
15099;DHT22;33900;53.640;9.942;2023-06-14T04:49:26;18.20;80.80
15099;DHT22;33900;53.640;9.942;2023-06-14T04:51:53;18.30;80.60
15099;DHT22;33900;53.640;9.942;2023-06-14T04:54:25;18.30;80.60
15099;DHT22;33900;53.640;9.942;2023-06-14T04:56:52;18.40;80.60
15099;DHT22;33900;53.640;9.942;2023-06-14T04:59:24;18.40;80.50
15099;DHT22;33900;53.640;9.942;2023-06-14T05:01:50;18.40;80.40
15099;DHT22;33900;53.640;9.942;2023-06-14T05:04:19;18.40;80.30
15099;DHT22;33900;53.640;9.942;2023-06-14T05:06:45;18.40;80.10
15099;DHT22;33900;53.640;9.942;2023-06-14T05:09:12;18.50;80.10
15099;DHT22;33900;53.640;9.942;2023-06-14T05:11:37;18.50;80.10
15099;DHT22;33900;53.640;9.942;2023-06-14T05:14:03;18.50;80.00
15099;DHT22;33900;53.640;9.942;2023-06-14T05:16:29;18.50;79.90
15099;DHT22;33900;53.640;9.942;2023-06-14T05:18:55;18.60;79.80
15099;DHT22;33900;53.640;9.942;2023-06-14T05:21:21;18.60;79.70
15099;DHT22;33900;53.640;9.942;2023-06-14T05:23:47;18.60;79.80
15099;DHT22;33900;53.640;9.942;2023-06-14T05:26:13;18.70;79.70
15099;DHT22;33900;53.640;9.942;2023-06-14T05:28:39;18.70;79.40
15099;DHT22;33900;53.640;9.942;2023-06-14T05:31:05;18.70;79.40
15099;DHT22;33900;53.640;9.942;2023-06-14T05:33:31;18.70;79.40
15099;DHT22;33900;53.640;9.942;2023-06-14T05:35:59;18.80;79.50
15099;DHT22;33900;53.640;9.942;2023-06-14T05:38:26;18.80;79.30
15099;DHT22;33900;53.640;9.942;2023-06-14T05:40:52;18.80;79.10
15099;DHT22;33900;53.640;9.942;2023-06-14T05:43:18;18.90;79.00
15099;DHT22;33900;53.640;9.942;2023-06-14T05:45:44;18.90;78.80
15099;DHT22;33900;53.640;9.942;2023-06-14T05:48:10;19.00;79.10
15099;DHT22;33900;53.640;9.942;2023-06-14T05:50:36;19.00;79.10
15099;DHT22;33900;53.640;9.942;2023-06-14T05:53:02;19.00;78.90
15099;DHT22;33900;53.640;9.942;2023-06-14T05:55:28;19.00;78.60
15099;DHT22;33900;53.640;9.942;2023-06-14T05:57:54;19.00;78.40
15099;DHT22;33900;53.640;9.942;2023-06-14T06:00:20;19.10;78.20
15099;DHT22;33900;53.640;9.942;2023-06-14T06:02:46;19.10;78.10
15099;DHT22;33900;53.640;9.942;2023-06-14T06:05:13;19.20;78.00
15099;DHT22;33900;53.640;9.942;2023-06-14T06:07:39;19.20;77.70
15099;DHT22;33900;53.640;9.942;2023-06-14T06:10:10;19.30;77.90
15099;DHT22;33900;53.640;9.942;2023-06-14T06:12:37;19.30;77.70
15099;DHT22;33900;53.640;9.942;2023-06-14T06:15:03;19.30;77.50
15099;DHT22;33900;53.640;9.942;2023-06-14T06:17:28;19.40;77.40
15099;DHT22;33900;53.640;9.942;2023-06-14T06:19:54;19.40;77.20
15099;DHT22;33900;53.640;9.942;2023-06-14T06:22:20;19.50;77.00
15099;DHT22;33900;53.640;9.942;2023-06-14T06:24:49;19.50;77.00
15099;DHT22;33900;53.640;9.942;2023-06-14T06:27:16;19.60;76.80
15099;DHT22;33900;53.640;9.942;2023-06-14T06:29:44;19.60;76.50
15099;DHT22;33900;53.640;9.942;2023-06-14T06:32:10;19.70;76.50
15099;DHT22;33900;53.640;9.942;2023-06-14T06:34:36;19.70;76.30
15099;DHT22;33900;53.640;9.942;2023-06-14T06:37:03;19.80;76.10
15099;DHT22;33900;53.640;9.942;2023-06-14T06:39:29;19.90;75.90
15099;DHT22;33900;53.640;9.942;2023-06-14T06:41:55;19.90;75.60
15099;DHT22;33900;53.640;9.942;2023-06-14T06:44:31;20.00;75.30
15099;DHT22;33900;53.640;9.942;2023-06-14T06:46:57;20.00;75.10
15099;DHT22;33900;53.640;9.942;2023-06-14T06:49:23;20.10;74.90
15099;DHT22;33900;53.640;9.942;2023-06-14T06:52:02;20.20;74.70
15099;DHT22;33900;53.640;9.942;2023-06-14T06:54:28;20.20;74.40
15099;DHT22;33900;53.640;9.942;2023-06-14T06:56:54;20.30;74.30
15099;DHT22;33900;53.640;9.942;2023-06-14T06:59:20;20.40;74.10
15099;DHT22;33900;53.640;9.942;2023-06-14T07:01:46;20.50;73.90
15099;DHT22;33900;53.640;9.942;2023-06-14T07:04:12;20.50;73.80
15099;DHT22;33900;53.640;9.942;2023-06-14T07:06:38;20.60;73.60
15099;DHT22;33900;53.640;9.942;2023-06-14T07:09:04;20.70;73.30
15099;DHT22;33900;53.640;9.942;2023-06-14T07:11:33;20.80;73.10
15099;DHT22;33900;53.640;9.942;2023-06-14T07:13:59;20.80;72.90
15099;DHT22;33900;53.640;9.942;2023-06-14T07:16:25;20.90;72.40
15099;DHT22;33900;53.640;9.942;2023-06-14T07:18:51;21.00;72.20
15099;DHT22;33900;53.640;9.942;2023-06-14T07:21:18;21.00;72.00
15099;DHT22;33900;53.640;9.942;2023-06-14T07:23:44;21.10;71.80
15099;DHT22;33900;53.640;9.942;2023-06-14T07:26:11;21.30;71.60
15099;DHT22;33900;53.640;9.942;2023-06-14T07:28:36;21.40;71.00
15099;DHT22;33900;53.640;9.942;2023-06-14T07:31:02;21.40;70.80
15099;DHT22;33900;53.640;9.942;2023-06-14T07:33:28;21.50;70.20
15099;DHT22;33900;53.640;9.942;2023-06-14T07:35:54;21.50;70.10
15099;DHT22;33900;53.640;9.942;2023-06-14T07:38:20;21.70;70.10
15099;DHT22;33900;53.640;9.942;2023-06-14T07:40:47;21.70;69.40
15099;DHT22;33900;53.640;9.942;2023-06-14T07:43:13;21.70;68.90
15099;DHT22;33900;53.640;9.942;2023-06-14T07:45:39;21.80;68.60
15099;DHT22;33900;53.640;9.942;2023-06-14T07:48:05;22.00;68.40
15099;DHT22;33900;53.640;9.942;2023-06-14T07:50:31;22.00;67.70
15099;DHT22;33900;53.640;9.942;2023-06-14T07:52:58;22.00;67.60
15099;DHT22;33900;53.640;9.942;2023-06-14T07:55:23;22.10;66.90
15099;DHT22;33900;53.640;9.942;2023-06-14T07:57:51;22.20;66.30
15099;DHT22;33900;53.640;9.942;2023-06-14T08:00:18;22.20;66.50
15099;DHT22;33900;53.640;9.942;2023-06-14T08:02:45;22.30;66.00
15099;DHT22;33900;53.640;9.942;2023-06-14T08:05:12;22.40;65.60
15099;DHT22;33900;53.640;9.942;2023-06-14T08:07:41;22.50;66.10
15099;DHT22;33900;53.640;9.942;2023-06-14T08:10:08;22.60;65.00
15099;DHT22;33900;53.640;9.942;2023-06-14T08:12:37;22.70;64.50
15099;DHT22;33900;53.640;9.942;2023-06-14T08:15:04;22.80;63.00
15099;DHT22;33900;53.640;9.942;2023-06-14T08:17:30;22.80;62.80
15099;DHT22;33900;53.640;9.942;2023-06-14T08:19:56;22.90;62.70
15099;DHT22;33900;53.640;9.942;2023-06-14T08:22:23;23.00;62.70
15099;DHT22;33900;53.640;9.942;2023-06-14T08:24:50;23.20;62.70
15099;DHT22;33900;53.640;9.942;2023-06-14T08:27:18;23.30;61.80
15099;DHT22;33900;53.640;9.942;2023-06-14T08:29:55;23.40;61.80
15099;DHT22;33900;53.640;9.942;2023-06-14T08:32:37;23.50;61.40
15099;DHT22;33900;53.640;9.942;2023-06-14T08:35:29;23.60;60.50
15099;DHT22;33900;53.640;9.942;2023-06-14T08:37:55;23.80;59.80
15099;DHT22;33900;53.640;9.942;2023-06-14T08:40:22;23.80;59.10
15099;DHT22;33900;53.640;9.942;2023-06-14T08:42:52;24.00;59.20
15099;DHT22;33900;53.640;9.942;2023-06-14T08:45:20;24.10;59.10
15099;DHT22;33900;53.640;9.942;2023-06-14T08:47:51;24.20;58.60
15099;DHT22;33900;53.640;9.942;2023-06-14T08:50:21;24.30;58.70
15099;DHT22;33900;53.640;9.942;2023-06-14T08:52:48;24.50;58.20
15099;DHT22;33900;53.640;9.942;2023-06-14T08:55:27;24.60;57.60
15099;DHT22;33900;53.640;9.942;2023-06-14T08:58:10;24.70;57.00
15099;DHT22;33900;53.640;9.942;2023-06-14T09:00:49;24.80;57.20
15099;DHT22;33900;53.640;9.942;2023-06-14T09:03:18;25.00;56.90
15099;DHT22;33900;53.640;9.942;2023-06-14T09:05:45;25.20;55.70
15099;DHT22;33900;53.640;9.942;2023-06-14T09:08:13;25.20;55.20
15099;DHT22;33900;53.640;9.942;2023-06-14T09:10:39;25.40;54.50
15099;DHT22;33900;53.640;9.942;2023-06-14T09:13:06;25.50;54.60
15099;DHT22;33900;53.640;9.942;2023-06-14T09:15:32;25.70;54.80
15099;DHT22;33900;53.640;9.942;2023-06-14T09:18:01;25.80;55.10
15099;DHT22;33900;53.640;9.942;2023-06-14T09:20:26;25.90;54.40
15099;DHT22;33900;53.640;9.942;2023-06-14T09:22:54;25.90;53.30
15099;DHT22;33900;53.640;9.942;2023-06-14T09:25:23;26.00;53.00
15099;DHT22;33900;53.640;9.942;2023-06-14T09:27:51;25.90;52.60
15099;DHT22;33900;53.640;9.942;2023-06-14T09:30:19;26.00;52.90
15099;DHT22;33900;53.640;9.942;2023-06-14T09:32:45;25.90;52.70
15099;DHT22;33900;53.640;9.942;2023-06-14T09:35:11;25.90;52.50
15099;DHT22;33900;53.640;9.942;2023-06-14T09:37:37;25.90;52.20
15099;DHT22;33900;53.640;9.942;2023-06-14T09:40:03;25.70;51.70
15099;DHT22;33900;53.640;9.942;2023-06-14T09:42:30;25.70;51.90
15099;DHT22;33900;53.640;9.942;2023-06-14T09:44:56;25.50;51.70
15099;DHT22;33900;53.640;9.942;2023-06-14T09:47:24;25.40;51.90
15099;DHT22;33900;53.640;9.942;2023-06-14T09:49:51;25.40;52.40
15099;DHT22;33900;53.640;9.942;2023-06-14T09:52:20;25.40;52.80
15099;DHT22;33900;53.640;9.942;2023-06-14T09:54:47;25.40;52.80
15099;DHT22;33900;53.640;9.942;2023-06-14T09:57:16;25.30;52.90
15099;DHT22;33900;53.640;9.942;2023-06-14T09:59:45;25.30;52.50
15099;DHT22;33900;53.640;9.942;2023-06-14T10:04:41;25.20;51.40
15099;DHT22;33900;53.640;9.942;2023-06-14T10:07:15;25.10;51.90
15099;DHT22;33900;53.640;9.942;2023-06-14T10:09:44;25.10;52.20
15099;DHT22;33900;53.640;9.942;2023-06-14T10:12:18;25.10;52.00
15099;DHT22;33900;53.640;9.942;2023-06-14T10:14:49;25.00;51.90
15099;DHT22;33900;53.640;9.942;2023-06-14T10:17:23;24.90;51.80
15099;DHT22;33900;53.640;9.942;2023-06-14T10:19:53;24.90;52.00
15099;DHT22;33900;53.640;9.942;2023-06-14T10:22:26;24.90;52.00
15099;DHT22;33900;53.640;9.942;2023-06-14T10:24:55;24.90;51.50
15099;DHT22;33900;53.640;9.942;2023-06-14T10:27:22;24.90;51.00
15099;DHT22;33900;53.640;9.942;2023-06-14T10:32:19;24.90;51.80
15099;DHT22;33900;53.640;9.942;2023-06-14T10:34:51;24.90;51.60
15099;DHT22;33900;53.640;9.942;2023-06-14T10:37:23;24.80;51.30
15099;DHT22;33900;53.640;9.942;2023-06-14T10:39:50;24.80;51.30
15099;DHT22;33900;53.640;9.942;2023-06-14T10:42:16;24.80;51.00
15099;DHT22;33900;53.640;9.942;2023-06-14T10:44:46;24.80;50.80
15099;DHT22;33900;53.640;9.942;2023-06-14T10:47:20;24.70;50.60
15099;DHT22;33900;53.640;9.942;2023-06-14T10:49:54;24.70;50.70
15099;DHT22;33900;53.640;9.942;2023-06-14T10:52:27;24.70;51.10
15099;DHT22;33900;53.640;9.942;2023-06-14T10:55:14;24.70;51.10
15099;DHT22;33900;53.640;9.942;2023-06-14T10:57:42;24.70;51.30
15099;DHT22;33900;53.640;9.942;2023-06-14T11:00:09;24.70;51.20
15099;DHT22;33900;53.640;9.942;2023-06-14T11:05:24;24.70;51.40
15099;DHT22;33900;53.640;9.942;2023-06-14T11:08:39;24.70;51.40
15099;DHT22;33900;53.640;9.942;2023-06-14T11:10:38;24.70;51.20
15099;DHT22;33900;53.640;9.942;2023-06-14T11:13:05;24.70;51.20
15099;DHT22;33900;53.640;9.942;2023-06-14T11:15:32;24.70;50.90
15099;DHT22;33900;53.640;9.942;2023-06-14T11:18:00;24.70;50.80
15099;DHT22;33900;53.640;9.942;2023-06-14T11:20:32;24.70;51.00
15099;DHT22;33900;53.640;9.942;2023-06-14T11:23:05;24.70;51.10
15099;DHT22;33900;53.640;9.942;2023-06-14T11:25:53;24.80;51.10
15099;DHT22;33900;53.640;9.942;2023-06-14T11:28:19;24.80;50.80
15099;DHT22;33900;53.640;9.942;2023-06-14T11:30:59;24.80;50.70
15099;DHT22;33900;53.640;9.942;2023-06-14T11:33:26;24.90;50.60
15099;DHT22;33900;53.640;9.942;2023-06-14T11:35:52;24.90;50.80
15099;DHT22;33900;53.640;9.942;2023-06-14T11:38:18;25.00;51.60
15099;DHT22;33900;53.640;9.942;2023-06-14T11:40:44;25.00;50.80
15099;DHT22;33900;53.640;9.942;2023-06-14T11:43:10;25.00;50.50
15099;DHT22;33900;53.640;9.942;2023-06-14T11:45:37;24.90;50.70
15099;DHT22;33900;53.640;9.942;2023-06-14T11:48:04;25.00;50.80
15099;DHT22;33900;53.640;9.942;2023-06-14T11:50:31;25.10;50.70
15099;DHT22;33900;53.640;9.942;2023-06-14T11:52:59;25.20;50.80
15099;DHT22;33900;53.640;9.942;2023-06-14T11:55:39;25.20;50.40
15099;DHT22;33900;53.640;9.942;2023-06-14T11:58:06;25.20;50.00
15099;DHT22;33900;53.640;9.942;2023-06-14T12:00:32;25.20;50.10
15099;DHT22;33900;53.640;9.942;2023-06-14T12:03:01;25.30;50.20
15099;DHT22;33900;53.640;9.942;2023-06-14T12:05:28;25.40;50.00
15099;DHT22;33900;53.640;9.942;2023-06-14T12:08:02;25.50;49.60
15099;DHT22;33900;53.640;9.942;2023-06-14T12:10:29;25.60;49.50
15099;DHT22;33900;53.640;9.942;2023-06-14T12:12:59;25.70;49.20
15099;DHT22;33900;53.640;9.942;2023-06-14T12:15:27;25.80;48.90
15099;DHT22;33900;53.640;9.942;2023-06-14T12:17:54;25.80;48.60
15099;DHT22;33900;53.640;9.942;2023-06-14T12:20:22;25.80;48.30
15099;DHT22;33900;53.640;9.942;2023-06-14T12:22:52;25.80;48.50
15099;DHT22;33900;53.640;9.942;2023-06-14T12:27:53;26.00;48.20
15099;DHT22;33900;53.640;9.942;2023-06-14T12:30:19;26.10;48.10
15099;DHT22;33900;53.640;9.942;2023-06-14T12:32:45;26.20;47.60
15099;DHT22;33900;53.640;9.942;2023-06-14T12:35:11;26.20;47.10
15099;DHT22;33900;53.640;9.942;2023-06-14T12:37:37;26.20;47.30
15099;DHT22;33900;53.640;9.942;2023-06-14T12:40:04;26.10;47.50
15099;DHT22;33900;53.640;9.942;2023-06-14T12:42:36;26.10;47.50
15099;DHT22;33900;53.640;9.942;2023-06-14T12:45:02;26.20;47.30
15099;DHT22;33900;53.640;9.942;2023-06-14T12:47:28;26.20;47.20
15099;DHT22;33900;53.640;9.942;2023-06-14T12:49:54;26.30;47.50
15099;DHT22;33900;53.640;9.942;2023-06-14T12:52:20;26.40;46.90
15099;DHT22;33900;53.640;9.942;2023-06-14T12:54:47;26.50;47.30
15099;DHT22;33900;53.640;9.942;2023-06-14T12:57:13;26.50;47.20
15099;DHT22;33900;53.640;9.942;2023-06-14T12:59:39;26.50;47.00
15099;DHT22;33900;53.640;9.942;2023-06-14T13:02:15;26.40;46.70
15099;DHT22;33900;53.640;9.942;2023-06-14T13:04:41;26.30;46.70
15099;DHT22;33900;53.640;9.942;2023-06-14T13:07:07;26.20;46.70
15099;DHT22;33900;53.640;9.942;2023-06-14T13:09:33;26.20;47.00
15099;DHT22;33900;53.640;9.942;2023-06-14T13:12:00;26.30;47.10
15099;DHT22;33900;53.640;9.942;2023-06-14T13:14:27;26.40;47.30
15099;DHT22;33900;53.640;9.942;2023-06-14T13:16:53;26.40;47.10
15099;DHT22;33900;53.640;9.942;2023-06-14T13:19:18;26.50;47.10
15099;DHT22;33900;53.640;9.942;2023-06-14T13:21:44;26.60;47.80
15099;DHT22;33900;53.640;9.942;2023-06-14T13:24:13;26.70;47.10
15099;DHT22;33900;53.640;9.942;2023-06-14T13:26:39;26.70;46.70
15099;DHT22;33900;53.640;9.942;2023-06-14T13:29:05;26.70;46.20
15099;DHT22;33900;53.640;9.942;2023-06-14T13:31:31;26.70;46.00
15099;DHT22;33900;53.640;9.942;2023-06-14T13:33:57;26.60;45.70
15099;DHT22;33900;53.640;9.942;2023-06-14T13:36:23;26.50;45.90
15099;DHT22;33900;53.640;9.942;2023-06-14T13:38:49;26.40;46.10
15099;DHT22;33900;53.640;9.942;2023-06-14T13:41:15;26.40;46.20
15099;DHT22;33900;53.640;9.942;2023-06-14T13:43:44;26.40;46.20
15099;DHT22;33900;53.640;9.942;2023-06-14T13:46:10;26.50;45.90
15099;DHT22;33900;53.640;9.942;2023-06-14T13:48:36;26.50;46.00
15099;DHT22;33900;53.640;9.942;2023-06-14T13:51:02;26.50;45.90
15099;DHT22;33900;53.640;9.942;2023-06-14T13:53:29;26.40;45.90
15099;DHT22;33900;53.640;9.942;2023-06-14T13:55:57;26.50;45.60
15099;DHT22;33900;53.640;9.942;2023-06-14T13:58:23;26.50;45.70
15099;DHT22;33900;53.640;9.942;2023-06-14T14:00:49;26.60;44.90
15099;DHT22;33900;53.640;9.942;2023-06-14T14:03:15;26.60;44.90
15099;DHT22;33900;53.640;9.942;2023-06-14T14:05:41;26.60;45.50
15099;DHT22;33900;53.640;9.942;2023-06-14T14:08:07;26.60;44.90
15099;DHT22;33900;53.640;9.942;2023-06-14T14:10:33;26.60;45.00
15099;DHT22;33900;53.640;9.942;2023-06-14T14:12:59;26.70;44.80
15099;DHT22;33900;53.640;9.942;2023-06-14T14:15:25;26.70;44.50
15099;DHT22;33900;53.640;9.942;2023-06-14T14:17:55;26.70;44.50
15099;DHT22;33900;53.640;9.942;2023-06-14T14:20:22;26.70;43.90
15099;DHT22;33900;53.640;9.942;2023-06-14T14:22:48;26.70;43.70
15099;DHT22;33900;53.640;9.942;2023-06-14T14:25:15;26.80;43.90
15099;DHT22;33900;53.640;9.942;2023-06-14T14:27:41;26.90;43.70
15099;DHT22;33900;53.640;9.942;2023-06-14T14:30:08;26.90;43.30
15099;DHT22;33900;53.640;9.942;2023-06-14T14:32:34;26.90;42.50
15099;DHT22;33900;53.640;9.942;2023-06-14T14:34:59;26.90;42.40
15099;DHT22;33900;53.640;9.942;2023-06-14T14:37:25;26.90;42.60
15099;DHT22;33900;53.640;9.942;2023-06-14T14:39:51;26.80;42.70
15099;DHT22;33900;53.640;9.942;2023-06-14T14:42:16;26.90;43.40
15099;DHT22;33900;53.640;9.942;2023-06-14T14:44:42;27.00;43.80
15099;DHT22;33900;53.640;9.942;2023-06-14T14:47:07;27.10;43.10
15099;DHT22;33900;53.640;9.942;2023-06-14T14:49:33;27.10;42.90
15099;DHT22;33900;53.640;9.942;2023-06-14T14:51:59;27.10;42.80
15099;DHT22;33900;53.640;9.942;2023-06-14T14:54:24;27.10;42.80
15099;DHT22;33900;53.640;9.942;2023-06-14T14:56:51;27.00;43.10
15099;DHT22;33900;53.640;9.942;2023-06-14T14:59:16;27.10;42.80
15099;DHT22;33900;53.640;9.942;2023-06-14T15:01:42;27.00;43.50
15099;DHT22;33900;53.640;9.942;2023-06-14T15:04:08;27.00;42.30
15099;DHT22;33900;53.640;9.942;2023-06-14T15:06:33;26.90;42.40
15099;DHT22;33900;53.640;9.942;2023-06-14T15:09:01;27.00;42.20
15099;DHT22;33900;53.640;9.942;2023-06-14T15:11:27;26.90;41.90
15099;DHT22;33900;53.640;9.942;2023-06-14T15:13:53;26.90;41.80
15099;DHT22;33900;53.640;9.942;2023-06-14T15:16:19;26.90;42.20
15099;DHT22;33900;53.640;9.942;2023-06-14T15:18:45;26.90;41.90
15099;DHT22;33900;53.640;9.942;2023-06-14T15:21:12;26.90;42.00
15099;DHT22;33900;53.640;9.942;2023-06-14T15:23:38;26.90;42.50
15099;DHT22;33900;53.640;9.942;2023-06-14T15:26:04;27.00;42.60
15099;DHT22;33900;53.640;9.942;2023-06-14T15:28:29;27.00;42.40
15099;DHT22;33900;53.640;9.942;2023-06-14T15:30:58;27.00;42.40
15099;DHT22;33900;53.640;9.942;2023-06-14T15:33:24;26.90;41.90
15099;DHT22;33900;53.640;9.942;2023-06-14T15:35:49;26.90;41.80
15099;DHT22;33900;53.640;9.942;2023-06-14T15:38:15;26.90;41.50
15099;DHT22;33900;53.640;9.942;2023-06-14T15:40:41;26.80;41.20
15099;DHT22;33900;53.640;9.942;2023-06-14T15:43:06;26.80;41.50
15099;DHT22;33900;53.640;9.942;2023-06-14T15:45:32;26.70;41.10